Terminal Aerodrome Forecast
Issued by NWS Dallas/Fort Worth, TX

Home | Current Version | Previous Version | Text Only | Print | Product List | Glossary On
Versions: 1 2 3 4 5 6 7 8 9 10 11 12 13 14 15 16 17 18 19 20 21 22 23 24 25 26 27 28 29 30 31
493
FTUS44 KFWD 231130
TAFACT
TAF
KACT 231130Z 2312/2412 02005KT 3SM SHRA BR SCT004 OVC010
     FM231400 06005KT 3SM -SHRA BR OVC005
     FM240100 10005KT 2SM BR OVC005
     FM241000 15008KT 2SM BR VCTS OVC005CB=

USA.gov is the U.S. government's official web portal to all federal, state and local government web resources and services.